createdAt,value
2023-11-24T00:00:22.601Z,95706.00
2023-11-24T00:01:22.648Z,95699.00
2023-11-24T00:02:22.587Z,95695.00
2023-11-24T00:03:22.638Z,95694.00
2023-11-24T00:04:22.606Z,95694.00
2023-11-24T00:05:22.542Z,95693.00
2023-11-24T00:06:22.539Z,95697.00
2023-11-24T00:07:22.524Z,95695.00
2023-11-24T00:08:22.555Z,95691.00
2023-11-24T00:09:22.744Z,95687.00
2023-11-24T00:10:22.515Z,95681.00
2023-11-24T00:11:22.490Z,95677.00
2023-11-24T00:12:22.488Z,95668.00
2023-11-24T00:13:22.458Z,95664.00
2023-11-24T00:14:22.463Z,95655.00
2023-11-24T00:15:22.462Z,95647.00
2023-11-24T00:16:22.774Z,95639.00
2023-11-24T00:17:22.426Z,95630.00
2023-11-24T00:18:22.710Z,95629.00
2023-11-24T00:19:22.406Z,95630.00
2023-11-24T00:20:22.413Z,95628.00
2023-11-24T00:21:22.453Z,95620.00
2023-11-24T00:22:22.400Z,95613.00
2023-11-24T00:23:22.372Z,95610.00
2023-11-24T00:24:22.496Z,95616.00
2023-11-24T00:25:22.359Z,95620.00
2023-11-24T00:26:22.492Z,95622.00
2023-11-24T00:27:22.345Z,95619.00
2023-11-24T00:28:22.330Z,95623.00
2023-11-24T00:29:22.319Z,95626.00
2023-11-24T00:30:22.380Z,95620.00
2023-11-24T00:31:22.282Z,95614.00
2023-11-24T00:32:22.276Z,95607.00
2023-11-24T00:33:22.521Z,95604.00
2023-11-24T00:34:22.355Z,95604.00
2023-11-24T00:35:22.269Z,95598.00
2023-11-24T00:36:22.382Z,95591.00
2023-11-24T00:37:22.235Z,95584.00
2023-11-24T00:38:22.233Z,95585.00
2023-11-24T00:39:22.399Z,95590.00
2023-11-24T00:40:22.225Z,95582.00
2023-11-24T00:41:22.205Z,95577.00
2023-11-24T00:42:22.262Z,95580.00
2023-11-24T00:43:22.202Z,95577.00
2023-11-24T00:44:22.172Z,95577.00
2023-11-24T00:45:22.183Z,95580.00
2023-11-24T00:46:22.179Z,95579.00
2023-11-24T00:47:22.143Z,95572.00
2023-11-24T00:48:22.185Z,95569.00
2023-11-24T00:49:22.125Z,95572.00
2023-11-24T00:50:22.134Z,95569.00
2023-11-24T00:51:22.228Z,95565.00
2023-11-24T00:52:22.110Z,95570.00
2023-11-24T00:53:22.112Z,95571.00
2023-11-24T00:54:22.107Z,95571.00
2023-11-24T00:55:22.072Z,95573.00
2023-11-24T00:56:22.063Z,95580.00
2023-11-24T00:57:22.119Z,95582.00
2023-11-24T00:58:22.096Z,95578.00
2023-11-24T00:59:22.092Z,95578.00
2023-11-24T01:00:22.082Z,95577.00
2023-11-24T01:01:22.028Z,95574.00
2023-11-24T01:02:22.076Z,95574.00
2023-11-24T01:03:22.037Z,95569.00
2023-11-24T01:04:22.099Z,95568.00
2023-11-24T01:05:21.985Z,95562.00
2023-11-24T01:06:22.041Z,95552.00
2023-11-24T01:07:21.966Z,95567.00
2023-11-24T01:08:21.973Z,95574.00
2023-11-24T01:09:22.050Z,95559.00
2023-11-24T01:10:21.951Z,95555.00
2023-11-24T01:11:21.935Z,95562.00
2023-11-24T01:12:21.948Z,95556.00
2023-11-24T01:13:21.930Z,95560.00
2023-11-24T01:14:21.912Z,95564.00
2023-11-24T01:15:21.940Z,95561.00
2023-11-24T01:16:21.892Z,95559.00
2023-11-24T01:17:22.002Z,95559.00
2023-11-24T01:18:22.005Z,95553.00
2023-11-24T01:19:21.873Z,95552.00
2023-11-24T01:20:21.898Z,95549.00
2023-11-24T01:21:22.815Z,95552.00
2023-11-24T01:22:21.861Z,95557.00
2023-11-24T01:23:21.836Z,95554.00
2023-11-24T01:24:21.863Z,95542.00
2023-11-24T01:25:21.815Z,95539.00
2023-11-24T01:26:21.814Z,95546.00
2023-11-24T01:27:21.883Z,95550.00
2023-11-24T01:28:21.810Z,95552.00
2023-11-24T01:29:21.792Z,95552.00
2023-11-24T01:30:21.977Z,95558.00
2023-11-24T01:31:21.765Z,95550.00
2023-11-24T01:32:21.762Z,95543.00
2023-11-24T01:33:21.831Z,95540.00
2023-11-24T01:34:21.838Z,95542.00
2023-11-24T01:35:21.757Z,95537.00
2023-11-24T01:36:21.878Z,95538.00
2023-11-24T01:37:21.771Z,95543.00
2023-11-24T01:38:21.731Z,95543.00
2023-11-24T01:39:21.901Z,95539.00
2023-11-24T01:40:21.696Z,95533.00
2023-11-24T01:41:21.787Z,95531.00
2023-11-24T01:42:21.736Z,95534.00
2023-11-24T01:43:21.800Z,95540.00
2023-11-24T01:44:21.686Z,95536.00
2023-11-24T01:45:21.784Z,95538.00
2023-11-24T01:46:21.835Z,95543.00
2023-11-24T01:47:21.714Z,95549.00
2023-11-24T01:48:21.765Z,95553.00
2023-11-24T01:49:21.683Z,95552.00
2023-11-24T01:50:21.677Z,95550.00
2023-11-24T01:51:21.741Z,95553.00
2023-11-24T01:52:21.681Z,95550.00
2023-11-24T01:53:21.695Z,95550.00
2023-11-24T01:54:21.764Z,95551.00
2023-11-24T01:55:21.743Z,95547.00
2023-11-24T01:56:21.665Z,95545.00
2023-11-24T01:57:21.732Z,95540.00
2023-11-24T01:58:21.535Z,95529.00
2023-11-24T01:59:21.528Z,95529.00
2023-11-24T02:00:21.595Z,95523.00
2023-11-24T02:01:21.501Z,95515.00
2023-11-24T02:02:21.609Z,95506.00
2023-11-24T02:03:21.638Z,95503.00
2023-11-24T02:04:21.516Z,95506.00
2023-11-24T02:05:21.495Z,95512.00
2023-11-24T02:06:21.475Z,95506.00
2023-11-24T02:07:21.451Z,95509.00
2023-11-24T02:08:21.457Z,95510.00
2023-11-24T02:09:21.446Z,95502.00
2023-11-24T02:10:21.458Z,95497.00
2023-11-24T02:11:21.414Z,95496.00
2023-11-24T02:12:21.418Z,95498.00
2023-11-24T02:13:21.414Z,95503.00
2023-11-24T02:14:21.398Z,95502.00
2023-11-24T02:15:21.417Z,95496.00
2023-11-24T02:16:21.421Z,95493.00
2023-11-24T02:17:21.374Z,95497.00
2023-11-24T02:18:21.361Z,95502.00
2023-11-24T02:19:21.354Z,95505.00
2023-11-24T02:20:21.357Z,95502.00
2023-11-24T02:21:21.375Z,95500.00
2023-11-24T02:22:21.378Z,95505.00
2023-11-24T02:23:21.320Z,95500.00
2023-11-24T02:24:21.314Z,95483.00
2023-11-24T02:25:21.299Z,95476.00
2023-11-24T02:26:21.316Z,95480.00
2023-11-24T02:27:21.281Z,95482.00
2023-11-24T02:28:21.286Z,95479.00
2023-11-24T02:29:21.261Z,95475.00
2023-11-24T02:30:21.316Z,95468.00
2023-11-24T02:31:21.361Z,95468.00
2023-11-24T02:32:21.246Z,95464.00
2023-11-24T02:33:21.310Z,95454.00
2023-11-24T02:34:21.302Z,95449.00
2023-11-24T02:35:21.265Z,95450.00
2023-11-24T02:36:21.229Z,95449.00
2023-11-24T02:37:21.196Z,95446.00
2023-11-24T02:38:21.187Z,95445.00
2023-11-24T02:39:21.204Z,95443.00
2023-11-24T02:40:21.188Z,95434.00
2023-11-24T02:41:21.183Z,95427.00
2023-11-24T02:42:21.175Z,95433.00
2023-11-24T02:43:21.279Z,95433.00
2023-11-24T02:44:21.152Z,95428.00
2023-11-24T02:45:21.123Z,95421.00
2023-11-24T02:46:21.134Z,95419.00
2023-11-24T02:47:21.105Z,95417.00
2023-11-24T02:48:21.144Z,95413.00
2023-11-24T02:49:21.107Z,95408.00
2023-11-24T02:50:21.092Z,95404.00
2023-11-24T02:51:21.091Z,95402.00
2023-11-24T02:52:21.072Z,95402.00
2023-11-24T02:53:21.046Z,95399.00
2023-11-24T02:54:21.048Z,95402.00
2023-11-24T02:55:21.035Z,95407.00
2023-11-24T02:56:21.050Z,95400.00
2023-11-24T02:57:21.014Z,95402.00
2023-11-24T02:58:21.012Z,95405.00
2023-11-24T02:59:21.015Z,95412.00
2023-11-24T03:00:20.994Z,95412.00
2023-11-24T03:01:42.047Z,95410.00
2023-11-24T03:02:21.050Z,95403.00
2023-11-24T03:03:20.955Z,95402.00
2023-11-24T03:04:21.042Z,95400.00
2023-11-24T03:05:20.953Z,95400.00
2023-11-24T03:06:20.945Z,95399.00
2023-11-24T03:07:20.948Z,95403.00
2023-11-24T03:08:20.935Z,95405.00
2023-11-24T03:09:20.919Z,95399.00
2023-11-24T03:10:20.917Z,95391.00
2023-11-24T03:11:20.907Z,95396.00
2023-11-24T03:12:20.893Z,95405.00
2023-11-24T03:13:21.808Z,95405.00
2023-11-24T03:14:20.866Z,95405.00
2023-11-24T03:15:20.861Z,95406.00
2023-11-24T03:16:20.869Z,95405.00
2023-11-24T03:17:20.842Z,95398.00
2023-11-24T03:18:20.856Z,95386.00
2023-11-24T03:19:20.821Z,95382.00
2023-11-24T03:20:20.830Z,95379.00
2023-11-24T03:21:20.801Z,95376.00
2023-11-24T03:22:20.808Z,95375.00
2023-11-24T03:23:20.779Z,95375.00
2023-11-24T03:24:20.789Z,95378.00
2023-11-24T03:25:20.911Z,95380.00
2023-11-24T03:26:20.772Z,95382.00
2023-11-24T03:27:20.739Z,95375.00
2023-11-24T03:28:20.748Z,95381.00
2023-11-24T03:29:20.716Z,95393.00
2023-11-24T03:30:20.730Z,95405.00
2023-11-24T03:31:20.719Z,95406.00
2023-11-24T03:32:20.707Z,95401.00
2023-11-24T03:33:20.732Z,95395.00
2023-11-24T03:34:20.793Z,95389.00
2023-11-24T03:35:20.660Z,95379.00
2023-11-24T03:36:20.671Z,95372.00
2023-11-24T03:37:25.688Z,95370.00
2023-11-24T03:38:20.645Z,95365.00
2023-11-24T03:39:20.645Z,95361.00
2023-11-24T03:40:20.629Z,95364.00
2023-11-24T03:41:20.627Z,95369.00
2023-11-24T03:42:20.610Z,95369.00
2023-11-24T03:43:20.646Z,95356.00
2023-11-24T03:44:20.591Z,95350.00
2023-11-24T03:45:20.590Z,95356.00
2023-11-24T03:46:20.610Z,95370.00
2023-11-24T03:47:20.568Z,95387.00
2023-11-24T03:48:20.576Z,95391.00
2023-11-24T03:49:20.544Z,95395.00
2023-11-24T03:50:20.550Z,95395.00
2023-11-24T03:51:20.528Z,95400.00
2023-11-24T03:52:20.531Z,95402.00
2023-11-24T03:53:20.502Z,95401.00
2023-11-24T03:54:20.512Z,95388.00
2023-11-24T03:55:20.489Z,95374.00
2023-11-24T03:56:20.483Z,95367.00
2023-11-24T03:57:20.473Z,95374.00
2023-11-24T03:58:20.471Z,95379.00
2023-11-24T03:59:20.477Z,95374.00
2023-11-24T04:00:20.458Z,95363.00
2023-11-24T04:01:20.515Z,95363.00
2023-11-24T04:02:20.467Z,95366.00
2023-11-24T04:03:20.461Z,95362.00
2023-11-24T04:04:20.422Z,95351.00
2023-11-24T04:05:20.414Z,95340.00
2023-11-24T04:06:20.381Z,95350.00
2023-11-24T04:07:20.386Z,95359.00
2023-11-24T04:08:20.367Z,95361.00
2023-11-24T04:09:20.374Z,95347.00
2023-11-24T04:10:20.344Z,95332.00
2023-11-24T04:11:20.356Z,95318.00
2023-11-24T04:12:20.356Z,95327.00
2023-11-24T04:13:20.332Z,95342.00
2023-11-24T04:14:20.335Z,95348.00
2023-11-24T04:15:20.310Z,95340.00
2023-11-24T04:16:20.920Z,95327.00
2023-11-24T04:17:20.310Z,95332.00
2023-11-24T04:18:20.315Z,95345.00
2023-11-24T04:19:20.288Z,95347.00
2023-11-24T04:20:20.266Z,95341.00
2023-11-24T04:21:20.268Z,95329.00
2023-11-24T04:22:20.252Z,95328.00
2023-11-24T04:23:20.264Z,95327.00
2023-11-24T04:24:20.237Z,95327.00
2023-11-24T04:25:20.217Z,95328.00
2023-11-24T04:26:20.205Z,95321.00
2023-11-24T04:27:20.210Z,95309.00
2023-11-24T04:28:20.198Z,95303.00
2023-11-24T04:29:20.176Z,95309.00
2023-11-24T04:30:20.171Z,95308.00
2023-11-24T04:31:20.167Z,95295.00
2023-11-24T04:32:20.149Z,95283.00
2023-11-24T04:33:20.159Z,95278.00
2023-11-24T04:34:20.219Z,95281.00
2023-11-24T04:35:20.141Z,95289.00
2023-11-24T04:36:20.123Z,95296.00
2023-11-24T04:37:20.118Z,95300.00
2023-11-24T04:38:20.086Z,95303.00
2023-11-24T04:39:20.102Z,95303.00
2023-11-24T04:40:20.077Z,95307.00
2023-11-24T04:41:20.079Z,95314.00
2023-11-24T04:42:20.054Z,95324.00
2023-11-24T04:43:20.084Z,95323.00
2023-11-24T04:44:20.031Z,95316.00
2023-11-24T04:45:20.043Z,95317.00
2023-11-24T04:46:20.101Z,95314.00
2023-11-24T04:47:20.017Z,95314.00
2023-11-24T04:48:20.007Z,95313.00
2023-11-24T04:49:20.007Z,95308.00
2023-11-24T04:50:20.012Z,95301.00
2023-11-24T04:51:19.973Z,95307.00
2023-11-24T04:52:19.970Z,95312.00
2023-11-24T04:53:19.958Z,95305.00
2023-11-24T04:54:19.956Z,95303.00
2023-11-24T04:55:19.940Z,95307.00
2023-11-24T04:56:19.933Z,95306.00
2023-11-24T04:57:19.920Z,95303.00
2023-11-24T04:58:19.908Z,95295.00
2023-11-24T04:59:19.915Z,95295.00
2023-11-24T05:00:19.951Z,95303.00
2023-11-24T05:01:20.102Z,95312.00
2023-11-24T05:02:19.945Z,95308.00
2023-11-24T05:03:19.923Z,95294.00
2023-11-24T05:04:19.920Z,95285.00
2023-11-24T05:05:19.853Z,95286.00
2023-11-24T05:06:20.648Z,95283.00
2023-11-24T05:07:19.834Z,95281.00
2023-11-24T05:08:19.817Z,95276.00
2023-11-24T05:09:19.836Z,95272.00
2023-11-24T05:10:19.801Z,95271.00
2023-11-24T05:11:19.803Z,95269.00
2023-11-24T05:12:19.797Z,95264.00
2023-11-24T05:13:19.785Z,95269.00
2023-11-24T05:14:19.802Z,95277.00
2023-11-24T05:15:19.765Z,95287.00
2023-11-24T05:16:19.909Z,95288.00
2023-11-24T05:17:19.770Z,95290.00
2023-11-24T05:18:19.740Z,95287.00
2023-11-24T05:19:19.719Z,95283.00
2023-11-24T05:20:19.716Z,95285.00
2023-11-24T05:21:19.711Z,95292.00
2023-11-24T05:22:19.715Z,95294.00
2023-11-24T05:23:19.710Z,95292.00
2023-11-24T05:24:19.693Z,95290.00
2023-11-24T05:25:19.680Z,95290.00
2023-11-24T05:26:19.660Z,95293.00
2023-11-24T05:27:19.660Z,95293.00
2023-11-24T05:28:19.641Z,95291.00
2023-11-24T05:29:19.631Z,95287.00
2023-11-24T05:30:19.617Z,95282.00
2023-11-24T05:31:19.628Z,95276.00
2023-11-24T05:32:19.613Z,95274.00
2023-11-24T05:33:19.595Z,95275.00
2023-11-24T05:34:19.590Z,95282.00
2023-11-24T05:35:19.586Z,95278.00
2023-11-24T05:36:19.581Z,95275.00
2023-11-24T05:37:19.580Z,95271.00
2023-11-24T05:38:19.545Z,95268.00
2023-11-24T05:39:19.547Z,95270.00
2023-11-24T05:40:19.583Z,95271.00
2023-11-24T05:41:19.549Z,95274.00
2023-11-24T05:42:19.532Z,95273.00
2023-11-24T05:43:19.529Z,95280.00
2023-11-24T05:44:19.498Z,95281.00
2023-11-24T05:45:19.495Z,95283.00
2023-11-24T05:46:19.548Z,95284.00
2023-11-24T05:47:19.476Z,95285.00
2023-11-24T05:48:19.491Z,95282.00
2023-11-24T05:49:19.455Z,95282.00
2023-11-24T05:50:19.440Z,95284.00
2023-11-24T05:51:19.434Z,95287.00
2023-11-24T05:52:19.484Z,95289.00
2023-11-24T05:53:19.447Z,95281.00
2023-11-24T05:54:19.405Z,95274.00
2023-11-24T05:55:19.418Z,95274.00
2023-11-24T05:56:19.404Z,95269.00
2023-11-24T05:57:19.408Z,95270.00
2023-11-24T05:58:19.373Z,95267.00
2023-11-24T05:59:19.379Z,95267.00
2023-11-24T06:00:19.372Z,95263.00
2023-11-24T06:01:19.359Z,95268.00
2023-11-24T06:02:19.367Z,95279.00
2023-11-24T06:03:19.363Z,95280.00
2023-11-24T06:04:19.381Z,95272.00
2023-11-24T06:05:19.386Z,95265.00
2023-11-24T06:06:19.297Z,95258.00
2023-11-24T06:07:19.326Z,95255.00
2023-11-24T06:08:19.279Z,95254.00
2023-11-24T06:09:19.280Z,95257.00
2023-11-24T06:10:19.267Z,95264.00
2023-11-24T06:11:19.360Z,95265.00
2023-11-24T06:12:19.272Z,95265.00
2023-11-24T06:13:19.261Z,95257.00
2023-11-24T06:14:19.242Z,95245.00
2023-11-24T06:15:19.295Z,95246.00
2023-11-24T06:16:19.245Z,95253.00
2023-11-24T06:17:19.214Z,95257.00
2023-11-24T06:18:19.200Z,95252.00
2023-11-24T06:19:19.211Z,95245.00
2023-11-24T06:20:19.187Z,95244.00
2023-11-24T06:21:19.180Z,95241.00
2023-11-24T06:22:19.159Z,95237.00
2023-11-24T06:23:19.157Z,95234.00
2023-11-24T06:24:19.137Z,95244.00
2023-11-24T06:25:19.234Z,95245.00
2023-11-24T06:26:19.118Z,95239.00
2023-11-24T06:27:19.138Z,95226.00
2023-11-24T06:28:19.119Z,95212.00
2023-11-24T06:29:19.108Z,95205.00
2023-11-24T06:30:19.088Z,95208.00
2023-11-24T06:31:19.091Z,95219.00
2023-11-24T06:32:19.057Z,95220.00
2023-11-24T06:33:19.097Z,95216.00
2023-11-24T06:34:19.245Z,95209.00
2023-11-24T06:35:19.055Z,95215.00
2023-11-24T06:36:19.016Z,95219.00
2023-11-24T06:37:19.123Z,95214.00
2023-11-24T06:38:19.017Z,95215.00
2023-11-24T06:39:19.007Z,95226.00
2023-11-24T06:40:19.060Z,95239.00
2023-11-24T06:41:18.983Z,95239.00
2023-11-24T06:42:18.987Z,95242.00
2023-11-24T06:43:19.088Z,95231.00
2023-11-24T06:44:18.960Z,95221.00
2023-11-24T06:45:20.755Z,95221.00
2023-11-24T06:46:18.970Z,95230.00
2023-11-24T06:47:18.927Z,95238.00
2023-11-24T06:48:18.936Z,95234.00
2023-11-24T06:49:18.946Z,95216.00
2023-11-24T06:50:18.895Z,95200.00
2023-11-24T06:51:18.896Z,95196.00
2023-11-24T06:52:18.895Z,95203.00
2023-11-24T06:53:18.886Z,95207.00
2023-11-24T06:54:18.900Z,95214.00
2023-11-24T06:55:18.902Z,95204.00
2023-11-24T06:56:18.847Z,95188.00
2023-11-24T06:57:18.847Z,95192.00
2023-11-24T06:58:18.832Z,95189.00
2023-11-24T06:59:18.922Z,95187.00
2023-11-24T07:00:19.352Z,95203.00
2023-11-24T07:01:18.895Z,95214.00
2023-11-24T07:02:18.902Z,95211.00
2023-11-24T07:03:18.799Z,95205.00
2023-11-24T07:04:18.867Z,95199.00
2023-11-24T07:05:18.797Z,95197.00
2023-11-24T07:06:18.773Z,95200.00
2023-11-24T07:07:18.751Z,95205.00
2023-11-24T07:08:18.760Z,95198.00
2023-11-24T07:09:18.723Z,95193.00
2023-11-24T07:10:18.812Z,95191.00
2023-11-24T07:11:18.727Z,95182.00
2023-11-24T07:12:18.721Z,95185.00
2023-11-24T07:13:18.697Z,95188.00
2023-11-24T07:14:18.700Z,95184.00
2023-11-24T07:15:18.731Z,95175.00
2023-11-24T07:16:18.738Z,95171.00
2023-11-24T07:17:18.676Z,95174.00
2023-11-24T07:18:18.713Z,95175.00
2023-11-24T07:19:18.750Z,95181.00
2023-11-24T07:20:18.639Z,95190.00
2023-11-24T07:21:18.632Z,95188.00
2023-11-24T07:22:18.685Z,95173.00
2023-11-24T07:23:18.608Z,95158.00
2023-11-24T07:24:18.629Z,95155.00
2023-11-24T07:25:18.657Z,95161.00
2023-11-24T07:26:18.589Z,95163.00
2023-11-24T07:27:18.570Z,95161.00
2023-11-24T07:28:18.722Z,95160.00
2023-11-24T07:29:18.545Z,95159.00
2023-11-24T07:30:18.559Z,95148.00
2023-11-24T07:31:18.736Z,95134.00
2023-11-24T07:32:18.540Z,95129.00
2023-11-24T07:33:18.621Z,95122.00
2023-11-24T07:34:18.541Z,95117.00
2023-11-24T07:35:18.557Z,95127.00
2023-11-24T07:36:18.499Z,95128.00
2023-11-24T07:37:18.548Z,95130.00
2023-11-24T07:38:18.509Z,95131.00
2023-11-24T07:39:18.471Z,95125.00
2023-11-24T07:40:18.499Z,95110.00
2023-11-24T07:41:18.441Z,95110.00
2023-11-24T07:42:18.438Z,95115.00
2023-11-24T07:43:18.475Z,95123.00
2023-11-24T07:44:18.421Z,95124.00
2023-11-24T07:45:18.425Z,95131.00
2023-11-24T07:46:18.475Z,95130.00
2023-11-24T07:47:18.392Z,95125.00
2023-11-24T07:48:18.402Z,95119.00
2023-11-24T07:49:18.424Z,95117.00
2023-11-24T07:50:18.387Z,95114.00
2023-11-24T07:51:18.434Z,95116.00
2023-11-24T07:52:18.358Z,95114.00
2023-11-24T07:53:18.399Z,95115.00
2023-11-24T07:54:18.356Z,95117.00
2023-11-24T07:55:18.339Z,95117.00
2023-11-24T07:56:18.327Z,95110.00
2023-11-24T07:57:18.308Z,95106.00
2023-11-24T07:58:18.348Z,95112.00
2023-11-24T07:59:18.278Z,95111.00
2023-11-24T08:00:18.363Z,95106.00
2023-11-24T08:01:18.341Z,95095.00
2023-11-24T08:02:18.400Z,95090.00
2023-11-24T08:03:18.404Z,95094.00
2023-11-24T08:04:18.366Z,95101.00
2023-11-24T08:05:18.229Z,95097.00
2023-11-24T08:06:18.224Z,95090.00
2023-11-24T08:07:18.289Z,95085.00
2023-11-24T08:08:18.202Z,95087.00
2023-11-24T08:09:18.206Z,95088.00
2023-11-24T08:10:18.219Z,95090.00
2023-11-24T08:11:18.175Z,95084.00
2023-11-24T08:12:18.278Z,95073.00
2023-11-24T08:13:18.168Z,95076.00
2023-11-24T08:14:18.155Z,95089.00
2023-11-24T08:15:18.154Z,95099.00
2023-11-24T08:16:18.242Z,95095.00
2023-11-24T08:17:18.152Z,95087.00
2023-11-24T08:18:18.132Z,95075.00
2023-11-24T08:19:18.117Z,95070.00
2023-11-24T08:20:18.102Z,95072.00
2023-11-24T08:21:18.097Z,95076.00
2023-11-24T08:22:18.135Z,95078.00
2023-11-24T08:23:18.108Z,95080.00
2023-11-24T08:24:18.089Z,95081.00
2023-11-24T08:25:18.155Z,95079.00
2023-11-24T08:26:18.083Z,95084.00
2023-11-24T08:27:18.059Z,95086.00
2023-11-24T08:28:18.081Z,95078.00
2023-11-24T08:29:18.032Z,95069.00
2023-11-24T08:30:18.038Z,95052.00
2023-11-24T08:31:18.081Z,95038.00
2023-11-24T08:32:17.996Z,95034.00
2023-11-24T08:33:18.019Z,95036.00
2023-11-24T08:34:18.059Z,95039.00
2023-11-24T08:35:17.993Z,95042.00
2023-11-24T08:36:17.966Z,95046.00
2023-11-24T08:37:17.993Z,95048.00
2023-11-24T08:38:17.961Z,95049.00
2023-11-24T08:39:17.931Z,95052.00
2023-11-24T08:40:18.034Z,95056.00
2023-11-24T08:41:26.537Z,95053.00
2023-11-24T08:42:18.907Z,95048.00
2023-11-24T08:43:17.910Z,95036.00
2023-11-24T08:44:17.900Z,95024.00
2023-11-24T08:45:18.330Z,95023.00
2023-11-24T08:46:18.032Z,95021.00
2023-11-24T08:47:17.891Z,95012.00
2023-11-24T08:48:17.859Z,95005.00
2023-11-24T08:49:17.938Z,94994.00
2023-11-24T08:50:17.888Z,95000.00
2023-11-24T08:51:17.840Z,95000.00
2023-11-24T08:52:17.858Z,95003.00
2023-11-24T08:53:17.807Z,95006.00
2023-11-24T08:54:17.796Z,95007.00
2023-11-24T08:55:17.924Z,95006.00
2023-11-24T08:56:17.791Z,95008.00
2023-11-24T08:57:17.812Z,95008.00
2023-11-24T08:58:17.815Z,95004.00
2023-11-24T08:59:17.761Z,94995.00
2023-11-24T09:00:17.763Z,94985.00
2023-11-24T09:01:17.889Z,94974.00
2023-11-24T09:02:17.800Z,94965.00
2023-11-24T09:03:17.731Z,94961.00
2023-11-24T09:04:17.807Z,94962.00
2023-11-24T09:05:17.735Z,94957.00
2023-11-24T09:06:17.714Z,94956.00
2023-11-24T09:07:17.721Z,94960.00
2023-11-24T09:08:20.633Z,94960.00
2023-11-24T09:09:17.689Z,94959.00
2023-11-24T09:10:17.765Z,94959.00
2023-11-24T09:11:17.649Z,94962.00
2023-11-24T09:12:17.740Z,94957.00
2023-11-24T09:13:17.649Z,94951.00
2023-11-24T09:14:17.671Z,94954.00
2023-11-24T09:15:17.609Z,94956.00
2023-11-24T09:16:17.691Z,94955.00
2023-11-24T09:17:17.620Z,94949.00
2023-11-24T09:18:17.587Z,94943.00
2023-11-24T09:19:17.628Z,94943.00
2023-11-24T09:20:17.638Z,94948.00
2023-11-24T09:21:17.569Z,94950.00
2023-11-24T09:22:17.593Z,94947.00
2023-11-24T09:23:17.588Z,94942.00
2023-11-24T09:24:17.553Z,94939.00
2023-11-24T09:25:17.772Z,94934.00
2023-11-24T09:26:17.546Z,94930.00
2023-11-24T09:27:17.503Z,94926.00
2023-11-24T09:28:17.609Z,94924.00
2023-11-24T09:29:17.500Z,94923.00
2023-11-24T09:30:17.569Z,94919.00
2023-11-24T09:31:17.517Z,94916.00
2023-11-24T09:32:17.469Z,94908.00
2023-11-24T09:33:17.448Z,94903.00
2023-11-24T09:34:17.557Z,94899.00
2023-11-24T09:35:17.484Z,94896.00
2023-11-24T09:36:17.447Z,94895.00
2023-11-24T09:37:17.470Z,94889.00
2023-11-24T09:38:17.421Z,94878.00
2023-11-24T09:39:17.418Z,94880.00
2023-11-24T09:40:17.670Z,94878.00
2023-11-24T09:41:17.391Z,94875.00
2023-11-24T09:42:20.398Z,94871.00
2023-11-24T09:43:17.421Z,94874.00
2023-11-24T09:44:17.372Z,94870.00
2023-11-24T09:45:17.397Z,94869.00
2023-11-24T09:46:17.505Z,94868.00
2023-11-24T09:47:17.352Z,94865.00
2023-11-24T09:48:17.346Z,94863.00
2023-11-24T09:49:17.335Z,94872.00
2023-11-24T09:50:17.333Z,94874.00
2023-11-24T09:51:17.305Z,94875.00
2023-11-24T09:52:17.312Z,94879.00
2023-11-24T09:53:17.287Z,94880.00
2023-11-24T09:54:17.291Z,94875.00
2023-11-24T09:55:17.333Z,94873.00
2023-11-24T09:56:17.305Z,94877.00
2023-11-24T09:57:17.523Z,94873.00
2023-11-24T09:58:17.278Z,94867.00
2023-11-24T09:59:17.251Z,94855.00
2023-11-24T10:00:17.229Z,94847.00
2023-11-24T10:01:17.215Z,94839.00
2023-11-24T10:02:17.261Z,94835.00
2023-11-24T10:03:17.191Z,94835.00
2023-11-24T10:04:17.311Z,94836.00
2023-11-24T10:05:17.167Z,94838.00
2023-11-24T10:06:17.222Z,94842.00
2023-11-24T10:07:17.159Z,94844.00
2023-11-24T10:08:17.147Z,94846.00
2023-11-24T10:09:17.142Z,94842.00
2023-11-24T10:10:17.143Z,94843.00
2023-11-24T10:11:17.125Z,94846.00
2023-11-24T10:12:17.113Z,94853.00
2023-11-24T10:13:17.118Z,94863.00
2023-11-24T10:14:17.174Z,94868.00
2023-11-24T10:15:17.113Z,94868.00
2023-11-24T10:16:17.161Z,94863.00
2023-11-24T10:17:17.137Z,94861.00
2023-11-24T10:18:17.058Z,94862.00
2023-11-24T10:19:20.577Z,94861.00
2023-11-24T10:20:18.054Z,94856.00
2023-11-24T10:21:27.214Z,94851.00
2023-11-24T10:22:18.119Z,94851.00
2023-11-24T10:23:17.014Z,94851.00
2023-11-24T10:24:17.022Z,94850.00
2023-11-24T10:25:17.013Z,94852.00
2023-11-24T10:26:17.124Z,94851.00
2023-11-24T10:27:16.983Z,94849.00
2023-11-24T10:28:17.081Z,94851.00
2023-11-24T10:29:16.965Z,94854.00
2023-11-24T10:30:16.953Z,94853.00
2023-11-24T10:31:17.030Z,94854.00
2023-11-24T10:32:16.966Z,94858.00
2023-11-24T10:33:34.643Z,94858.00
2023-11-24T10:34:18.025Z,94858.00
2023-11-24T10:35:17.006Z,94850.00
2023-11-24T10:36:16.923Z,94846.00
2023-11-24T10:37:16.917Z,94839.00
2023-11-24T10:38:16.872Z,94839.00
2023-11-24T10:39:16.873Z,94838.00
2023-11-24T10:40:17.100Z,94839.00
2023-11-24T10:41:16.849Z,94841.00
2023-11-24T10:42:16.927Z,94843.00
2023-11-24T10:43:16.838Z,94842.00
2023-11-24T10:44:16.824Z,94836.00
2023-11-24T10:45:16.825Z,94832.00
2023-11-24T10:46:16.918Z,94829.00
2023-11-24T10:47:16.818Z,94822.00
2023-11-24T10:48:16.865Z,94815.00
2023-11-24T10:49:16.817Z,94812.00
2023-11-24T10:50:16.779Z,94811.00
2023-11-24T10:51:16.768Z,94806.00
2023-11-24T10:52:16.812Z,94803.00
2023-11-24T10:53:16.726Z,94805.00
2023-11-24T10:54:16.740Z,94802.00
2023-11-24T10:55:16.818Z,94799.00
2023-11-24T10:56:16.721Z,94794.00
2023-11-24T10:57:16.701Z,94794.00
2023-11-24T10:58:16.732Z,94796.00
2023-11-24T10:59:16.675Z,94791.00
2023-11-24T11:00:16.675Z,94788.00
2023-11-24T11:01:16.722Z,94794.00
2023-11-24T11:02:18.008Z,94799.00
2023-11-24T11:03:16.727Z,94801.00
2023-11-24T11:04:16.666Z,94806.00
2023-11-24T11:05:16.626Z,94809.00
2023-11-24T11:06:16.619Z,94809.00
2023-11-24T11:07:16.716Z,94810.00
2023-11-24T11:08:16.593Z,94805.00
2023-11-24T11:09:16.605Z,94800.00
2023-11-24T11:10:16.744Z,94798.00
2023-11-24T11:11:16.604Z,94797.00
2023-11-24T11:12:16.562Z,94798.00
2023-11-24T11:13:16.599Z,94803.00
2023-11-24T11:14:16.585Z,94803.00
2023-11-24T11:15:16.547Z,94797.00
2023-11-24T11:16:16.664Z,94795.00
2023-11-24T11:17:16.524Z,94793.00
2023-11-24T11:18:16.603Z,94788.00
2023-11-24T11:19:16.515Z,94790.00
2023-11-24T11:20:16.664Z,94790.00
2023-11-24T11:21:16.502Z,94792.00
2023-11-24T11:22:16.576Z,94786.00
2023-11-24T11:23:16.623Z,94778.00
2023-11-24T11:24:16.461Z,94769.00
2023-11-24T11:25:16.525Z,94771.00
2023-11-24T11:26:16.438Z,94767.00
2023-11-24T11:27:16.442Z,94774.00
2023-11-24T11:28:16.580Z,94774.00
2023-11-24T11:29:16.431Z,94775.00
2023-11-24T11:30:16.413Z,94776.00
2023-11-24T11:31:16.504Z,94778.00
2023-11-24T11:32:16.463Z,94782.00
2023-11-24T11:33:16.414Z,94784.00
2023-11-24T11:34:16.539Z,94783.00
2023-11-24T11:35:16.366Z,94788.00
2023-11-24T11:36:16.347Z,94792.00
2023-11-24T11:37:16.376Z,94794.00
2023-11-24T11:38:17.020Z,94786.00
2023-11-24T11:39:16.333Z,94781.00
2023-11-24T11:40:16.469Z,94775.00
2023-11-24T11:41:16.336Z,94762.00
2023-11-24T11:42:16.391Z,94749.00
2023-11-24T11:43:17.127Z,94752.00
2023-11-24T11:44:16.285Z,94754.00